MMTJKPSP

Guest
Details From MMTJ - GENERAL ABELARDO L RODRIGUEZ INTL
To KPSP - Palm Springs Intl
Flight Number -
Tags generated
Created
Modified
Stats Distance 81 nm / 150 km
Max Altitude 200 ft / 61 m
Waypoints 3
Social Downloads 0
Likes 0
Share VATSIM

Download

Looking for another format? Having issues loading an existing format? Contact us
Advertisement - Login to hide

Notes

Basic altitude profile: - Ascent Rate: 800ft/min - Ascent Speed: 290kts - Cruise Altitude: 32000ft - Cruise Speed: 310kts - Descent Rate: 8000ft/min - Descent Speed: 300kts Options: - Use NATs: yes - Use PACOTS: yes - Use low airways: no - Use high airways: yes

Route

MMTJ TIJ01 KPSP

ID Type Via Altitude Latitude Longitude Leg Dist Tot Dist Heading (true) Name
O MMTJ APT - 0 ft / 0 m 32.54106˚ -116.97016˚ - 0 nm - GENERAL ABELARDO L RODRIGUEZ INTL
TIJ01 FIX - 200 ft / 61 m 32.55217˚ -116.96736˚ 0 nm 0 nm 12° / 12° -
O KPSP APT - 0 ft / 0 m 33.82968˚ -116.50622˚ 80 nm 80 nm 17° / 17° Palm Springs Intl

Altitude Profile

Advertisement - Login to hide

MMTJ

Details ICAO MMTJ (TIJ)
Name GENERAL ABELARDO L RODRIGUEZ INTL
Region Mexico
Timezone America/Tijuana (UTC-8.0)
Stats Elevation 489 ft / 149 m (AMSL)
Location 32.541063° -116.970158°
Runways 1
Magnetic Variation 11.442° E

METAR

MMTJ 172347Z 32007KT 10SM SKC 19/05 A2993 RMK SLP138 52001 944

Decode

TAF

TAF MMTJ 172316Z 1800/1906 06010KT P6SM SKC TX20/1821Z TN09/1812Z BECMG 1803/1803 00000KT FM181900 30010KT P6SM SCT200 BECMG 1902/1903 34006KT

Decode

Departure Runways

ID Width Length Bearing (true) Bearing (mag) Surface Threshold Offset Overrun Length
09 144 ft / 44 m 9,660 ft / 2,944 m 98.85° 87.41° Concrete 0 ft / 0 m 180 ft / 55 m
27 144 ft / 44 m 9,660 ft / 2,944 m 278.86° 267.42° Concrete 0 ft / 0 m 180 ft / 55 m

KPSP

Details ICAO KPSP (PSP)
Name Palm Springs Intl
Region United States
Timezone America/Los_Angeles (UTC-8.0)
Stats Elevation 477 ft / 145 m (AMSL)
Location 33.829677° -116.506218°
Runways 2
Magnetic Variation 11.579° E

METAR

KPSP 180053Z 01004KT 10SM CLR 18/M08 A3002 RMK AO2 SLP164 T01831078

Decode

TAF

TAF KPSP 172320Z 1800/1824 34009KT P6SM SKC FM180400 VRB06KT P6SM SKC

Decode

Destination Runways

ID Width Length Bearing (true) Bearing (mag) Surface Threshold Offset Overrun Length
13L 75 ft / 23 m 4,958 ft / 1,511 m 143.52° 131.94° Asphalt 0 ft / 0 m 151 ft / 46 m
13R 151 ft / 46 m 10,012 ft / 3,052 m 143.52° 131.94° Asphalt 2,999 ft / 914 m 200 ft / 61 m
31L 151 ft / 46 m 10,012 ft / 3,052 m 323.53° 311.95° Asphalt 1,499 ft / 457 m 200 ft / 61 m
31R 75 ft / 23 m 4,958 ft / 1,511 m 323.53° 311.95° Asphalt 0 ft / 0 m 151 ft / 46 m

Popular Alternatives